createdAt,value
2022-12-15T00:00:28.658Z,1.00
2022-12-15T00:06:00.610Z,1.00
2022-12-15T00:11:32.230Z,1.00
2022-12-15T00:17:04.479Z,0.00
2022-12-15T00:22:36.113Z,1.00
2022-12-15T00:28:08.159Z,0.00
2022-12-15T00:33:39.852Z,0.00
2022-12-15T00:39:11.580Z,0.00
2022-12-15T00:50:15.063Z,0.00
2022-12-15T01:01:18.675Z,0.00
2022-12-15T01:09:11.465Z,0.00
2022-12-15T01:14:43.388Z,1.00
2022-12-15T01:20:15.112Z,0.00
2022-12-15T01:31:19.081Z,0.00
2022-12-15T01:36:50.893Z,0.00
2022-12-15T01:42:22.684Z,1.00
2022-12-15T01:47:54.685Z,0.00
2022-12-15T01:53:27.149Z,0.00
2022-12-15T01:58:59.162Z,1.00
2022-12-15T02:04:30.729Z,0.00
2022-12-15T02:12:26.093Z,0.00
2022-12-15T02:17:57.812Z,0.00
2022-12-15T02:23:30.341Z,1.00
2022-12-15T02:29:02.104Z,1.00
2022-12-15T02:34:37.094Z,0.00
2022-12-15T02:40:08.752Z,0.00
2022-12-15T02:45:40.731Z,0.00
2022-12-15T02:51:12.625Z,0.00
2022-12-15T02:56:44.676Z,1.00
2022-12-15T03:02:16.417Z,1.00
2022-12-15T03:07:49.757Z,0.00
2022-12-15T03:18:51.879Z,0.00
2022-12-15T03:24:24.142Z,0.00
2022-12-15T03:29:56.390Z,1.00
2022-12-15T03:35:28.278Z,0.00
2022-12-15T03:41:00.053Z,0.00
2022-12-15T03:46:32.063Z,0.00
2022-12-15T03:52:03.904Z,1.00
2022-12-15T03:57:35.667Z,0.00
2022-12-15T04:03:07.496Z,0.00
2022-12-15T04:08:39.255Z,0.00
2022-12-15T04:14:10.897Z,0.00
2022-12-15T04:19:43.809Z,0.00
2022-12-15T04:25:15.591Z,0.00
2022-12-15T04:30:47.430Z,0.00
2022-12-15T04:36:19.334Z,1.00
2022-12-15T04:41:51.273Z,0.00
2022-12-15T04:47:23.594Z,1.00
2022-12-15T04:52:55.531Z,0.00
2022-12-15T04:58:28.034Z,0.00
2022-12-15T05:09:32.002Z,1.00
2022-12-15T05:22:54.276Z,0.00
2022-12-15T05:28:26.068Z,1.00
2022-12-15T05:34:02.832Z,0.00
2022-12-15T05:39:29.298Z,0.00
2022-12-15T05:45:01.506Z,0.00
2022-12-15T05:50:33.287Z,0.00
2022-12-15T05:56:05.097Z,0.00
2022-12-15T06:01:37.041Z,0.00
2022-12-15T06:07:09.190Z,1.00
2022-12-15T06:12:41.024Z,1.00
2022-12-15T06:18:12.889Z,1.00
2022-12-15T06:23:45.014Z,2.00
2022-12-15T06:29:17.064Z,7.00
2022-12-15T06:40:18.649Z,28.00
2022-12-15T06:45:50.493Z,52.00
2022-12-15T06:51:22.631Z,85.00
2022-12-15T06:56:54.737Z,127.00
2022-12-15T07:02:28.992Z,150.00
2022-12-15T07:07:58.416Z,228.00
2022-12-15T07:18:59.790Z,458.00
2022-12-15T07:30:03.873Z,603.00
2022-12-15T07:35:35.747Z,821.00
2022-12-15T07:41:07.892Z,1091.00
2022-12-15T07:52:09.792Z,3011.00
2022-12-15T08:03:19.466Z,3233.00
2022-12-15T08:08:51.543Z,4199.00
2022-12-15T08:14:24.540Z,10952.00
2022-12-15T08:19:58.862Z,11711.00
2022-12-15T08:25:27.588Z,8475.00
2022-12-15T08:30:59.215Z,6802.00
2022-12-15T08:42:01.399Z,4704.00
2022-12-15T08:47:33.499Z,3615.00
2022-12-15T08:53:30.248Z,4312.00
2022-12-15T09:04:06.698Z,4530.00
2022-12-15T09:09:38.519Z,6537.00
2022-12-15T09:15:10.769Z,8906.00
2022-12-15T09:20:43.045Z,9434.00
2022-12-15T09:26:15.399Z,10690.00
2022-12-15T09:31:47.360Z,8160.00
2022-12-15T09:37:19.199Z,8545.00
2022-12-15T09:43:04.869Z,9130.00
2022-12-15T09:48:24.156Z,10020.00
2022-12-15T09:53:56.988Z,9650.00
2022-12-15T09:59:28.327Z,9269.00
2022-12-15T10:05:06.245Z,9134.00
2022-12-15T10:10:38.596Z,10219.00
2022-12-15T10:16:10.819Z,9907.00
2022-12-15T10:21:50.375Z,10026.00
2022-12-15T10:27:21.104Z,10995.00
2022-12-15T10:32:58.813Z,11096.00
2022-12-15T10:38:30.281Z,9824.00
2022-12-15T10:44:02.677Z,9070.00
2022-12-15T10:49:35.074Z,8788.00
2022-12-15T10:55:13.218Z,10463.00
2022-12-15T11:00:45.502Z,10616.00
2022-12-15T11:06:17.529Z,11215.00
2022-12-15T11:11:50.363Z,10300.00
2022-12-15T11:17:27.594Z,10119.00
2022-12-15T11:23:05.543Z,11335.00
2022-12-15T11:28:37.505Z,11096.00
2022-12-15T11:34:15.942Z,10618.00
2022-12-15T11:39:54.070Z,10639.00
2022-12-15T11:45:26.489Z,10185.00
2022-12-15T11:50:58.703Z,8524.00
2022-12-15T12:02:03.536Z,6658.00
2022-12-15T12:07:38.479Z,6708.00
2022-12-15T12:13:05.410Z,6625.00
2022-12-15T12:18:38.025Z,6444.00
2022-12-15T12:24:16.104Z,6377.00
2022-12-15T12:32:04.996Z,6335.00
2022-12-15T12:37:33.167Z,6652.00
2022-12-15T12:43:08.641Z,6297.00
2022-12-15T12:48:36.716Z,7004.00
2022-12-15T12:54:08.444Z,5948.00
2022-12-15T12:59:40.218Z,5676.00
2022-12-15T13:05:12.349Z,4570.00
2022-12-15T13:10:44.408Z,3992.00
2022-12-15T13:21:51.569Z,3416.00
2022-12-15T13:27:23.687Z,3114.00
2022-12-15T13:33:01.494Z,2903.00
2022-12-15T13:44:03.521Z,3165.00
2022-12-15T13:49:35.976Z,2800.00
2022-12-15T13:55:14.316Z,2595.00
2022-12-15T14:00:46.273Z,2415.00
2022-12-15T14:06:24.488Z,2148.00
2022-12-15T14:12:02.788Z,2143.00
2022-12-15T14:17:41.141Z,1748.00
2022-12-15T14:23:13.620Z,1835.00
2022-12-15T14:28:51.605Z,1574.00
2022-12-15T14:34:23.636Z,1535.00
2022-12-15T14:39:56.234Z,1418.00
2022-12-15T14:45:28.479Z,1091.00
2022-12-15T14:51:00.342Z,1078.00
2022-12-15T14:56:32.441Z,764.00
2022-12-15T15:02:04.616Z,438.00
2022-12-15T15:07:36.334Z,282.00
2022-12-15T15:13:08.523Z,165.00
2022-12-15T15:18:42.595Z,97.00
2022-12-15T15:24:14.736Z,67.00
2022-12-15T15:29:46.867Z,50.00
2022-12-15T15:35:19.102Z,30.00
2022-12-15T15:40:57.515Z,16.00
2022-12-15T15:46:29.558Z,7.00
2022-12-15T15:52:01.772Z,3.00
2022-12-15T15:57:34.198Z,2.00
2022-12-15T16:03:06.500Z,1.00
2022-12-15T16:18:50.670Z,3.00
2022-12-15T16:24:24.558Z,1.00
2022-12-15T16:29:56.663Z,1.00
2022-12-15T16:35:28.395Z,2.00
2022-12-15T16:41:00.043Z,2.00
2022-12-15T16:46:32.161Z,2.00
2022-12-15T16:52:04.149Z,2.00
2022-12-15T16:57:35.872Z,2.00
2022-12-15T17:03:08.234Z,3.00
2022-12-15T17:08:39.649Z,1.00
2022-12-15T17:14:11.545Z,1.00
2022-12-15T17:20:04.987Z,1.00
2022-12-15T17:25:16.658Z,1.00
2022-12-15T17:30:48.777Z,1.00
2022-12-15T17:36:20.679Z,1.00
2022-12-15T17:42:01.528Z,1.00
2022-12-15T17:47:24.643Z,1.00
2022-12-15T17:52:57.148Z,1.00
2022-12-15T17:58:29.086Z,1.00
2022-12-15T18:04:00.773Z,2.00
2022-12-15T18:09:32.656Z,1.00
2022-12-15T18:15:04.664Z,1.00
2022-12-15T18:20:37.080Z,1.00
2022-12-15T18:26:09.075Z,1.00
2022-12-15T18:31:41.268Z,1.00
2022-12-15T18:37:12.915Z,2.00
2022-12-15T18:42:45.118Z,2.00
2022-12-15T18:48:17.338Z,1.00
2022-12-15T18:53:48.956Z,1.00
2022-12-15T18:59:20.891Z,2.00
2022-12-15T19:04:52.914Z,1.00
2022-12-15T19:10:24.766Z,1.00
2022-12-15T19:15:56.861Z,1.00
2022-12-15T19:21:29.398Z,1.00
2022-12-15T19:27:01.101Z,1.00
2022-12-15T19:29:24.607Z,1.00
2022-12-15T19:34:56.171Z,2.00
2022-12-15T19:40:27.729Z,1.00
2022-12-15T19:45:59.472Z,1.00
2022-12-15T19:51:31.522Z,1.00
2022-12-15T19:57:03.311Z,1.00
2022-12-15T20:02:35.505Z,1.00
2022-12-15T20:08:07.073Z,1.00
2022-12-15T20:13:38.922Z,1.00
2022-12-15T20:19:11.179Z,1.00
2022-12-15T20:24:43.612Z,1.00
2022-12-15T20:30:15.667Z,1.00
2022-12-15T20:35:47.654Z,1.00
2022-12-15T20:41:19.644Z,1.00
2022-12-15T20:46:51.884Z,2.00
2022-12-15T20:52:23.988Z,1.00
2022-12-15T20:57:55.698Z,1.00
2022-12-15T21:03:27.645Z,1.00
2022-12-15T21:08:59.611Z,1.00
2022-12-15T21:14:31.752Z,1.00
2022-12-15T21:20:03.765Z,1.00
2022-12-15T21:25:36.140Z,1.00
2022-12-15T21:31:08.153Z,1.00
2022-12-15T21:36:40.281Z,1.00
2022-12-15T21:42:12.242Z,1.00
2022-12-15T21:47:44.674Z,1.00
2022-12-15T21:53:17.000Z,1.00
2022-12-15T21:58:48.965Z,1.00
2022-12-15T22:04:21.248Z,1.00
2022-12-15T22:09:53.706Z,1.00
2022-12-15T22:15:25.670Z,1.00
2022-12-15T22:26:29.043Z,0.00
2022-12-15T22:32:00.671Z,1.00
2022-12-15T22:37:33.009Z,0.00
2022-12-15T22:45:26.717Z,1.00
2022-12-15T22:50:58.509Z,1.00
2022-12-15T22:56:30.556Z,1.00
2022-12-15T23:02:02.569Z,0.00
2022-12-15T23:07:34.017Z,1.00
2022-12-15T23:13:11.904Z,0.00
2022-12-15T23:18:43.637Z,0.00
2022-12-15T23:24:15.366Z,1.00
2022-12-15T23:29:47.072Z,0.00
2022-12-15T23:35:18.847Z,1.00
2022-12-15T23:40:52.810Z,1.00
2022-12-15T23:46:22.216Z,0.00
2022-12-15T23:51:53.682Z,0.00
2022-12-15T23:57:25.269Z,0.00
